Dario Meira, Brazil
Current Conditions -  °F | °C
As of 12:00 PM on Thursday 30 Oct 2014 (Local Time) from SBIL Reporting Station
Rain Showers Rain Showers  
Wind Chill: 82°   Ceiling: 7000
Heat Index: 88°   Visibility: 5mi
Dew Point: 73°   Wind: 9mph
Humidity: 74%   Direction: 40°NE
Pressure: 30"   Gusts: NA
Location:  14.44°S, 39.91°W
Report Text: SBIL 301500Z 04008KT 8000 VCSH SCT015 SCT020 BKN070 28/23 Q1016
Loading
Personal Weather Stations






























Interactive Weather Map
Tropical Storm Tracking
New forecast layout! Learn more

10-Day Weather Forecast

Advertisements
Track Severe Weather on mobile